KBCE/BCE METAR and TAF weather

Enter ICAO airport designator
Station Type Date Time Source
KBCE METAR 2018/12/12 23:53 UTC NOAA

KBCE 122353Z AUTO 32020G30KT 10SM CLR M03/M12 A3014 RMK AO2 PK WND 31033/2259 SLP233 60000 T10331117 10050 21033 53025


Station Type Date Time Source
KBCE Decoded METAR 2018/12/12 23:53 UTC NOAA

BRYCE CANYON AIRPORT, UT, United States (KBCE) 37-42N 112-09W 2312M
Dec 12, 2018 - 06:53 PM EST / 2018.12.12 2353 UTC
Wind: from the NW (320 degrees) at 23 MPH (20 KT) gusting to 35 MPH (30 KT):0
Visibility: 10 mile(s):0
Sky conditions: clear
Temperature: 26.1 F (-3.3 C)
Windchill: 12 F (-11 C):1
Dew Point: 10.9 F (-11.7 C)
Relative Humidity: 52%
Pressure (altimeter): 30.14 in. Hg (1020 hPa)
Pressure tendency: 0.07 inches (2.5 hPa) higher than three hours ago
ob: KBCE 122353Z AUTO 32020G30KT 10SM CLR M03/M12 A3014 RMK AO2 PK WND 31033/2259 SLP233 60000 T10331117 10050 21033 53025
cycle: 0

Station Type Date Time Source
KBCE TAF 2018/12/12 22:22 UTC NOAA

TAF
AMD KBCE 122220Z 1222/1318 30020G35KT P6SM VCSH SCT030 OVC050
FM130100 34012G22KT P6SM SCT050 SCT100
FM130500 30010KT P6SM FEW160


Example: see airport list